Bronx, New York
Current Conditions -  °F | °C
As of 7:51 PM on Wednesday 26 Nov 2014 (Local Time) from KLGA Reporting Station
Light Snow Light Snow  
Wind Chill: 24°   Ceiling: 900
Heat Index: 36°   Visibility: 3mi
Dew Point: 33°   Wind: 24mph
Humidity: 89%   Direction: 330°NNW
Pressure: 29.79"   Gusts: 31mph
Location:  40.85°N, 73.87°W
Report Text: KLGA 270051Z 33021G27KT 3SM -RASN BR BKN009 BKN015 OVC031 02/01 A2979 RMK AO2 PK WND 33027/0042 RAE16B45 SLP087 P0001 T00220006
Loading
Personal Weather Stations






























Interactive Weather Map New forecast layout! Learn more

10-Day Weather Forecast

Advertisements
Track Severe Weather on mobile